Scilly, United Kingdom
Current Conditions -  °F | °C
As of 4:20 PM on Wednesday 22 Oct 2014 (Local Time) from EGHE Reporting Station
Scattered Clouds Scattered Clouds  
Wind Chill: 57°   Ceiling: Unl
Heat Index: 57°   Visibility: 6mi
Dew Point: 46°   Wind: 16mph
Humidity: 67%   Direction: 260°W
Pressure: 30.33"   Gusts: NA
Location:  49.93°N, 6.31°W
Report Text: EGHE 221520Z 26014KT 9999 SCT029 14/08 Q1027
Loading
Personal Weather Stations






























Interactive Weather Map New forecast layout! Learn more

10-Day Weather Forecast

Advertisements
Track Severe Weather on mobile